sensor_id;sensor_type;location;lat;lon;timestamp;P1;durP1;ratioP1;P2;durP2;ratioP2
3085;SDS011;52812;48.960;9.108;2022-10-16T00:00:37;5.77;;;3.30;;
3085;SDS011;52812;48.960;9.108;2022-10-16T00:03:04;5.07;;;3.00;;
3085;SDS011;52812;48.960;9.108;2022-10-16T00:05:30;5.17;;;3.07;;
3085;SDS011;52812;48.960;9.108;2022-10-16T00:07:56;7.20;;;2.87;;
3085;SDS011;52812;48.960;9.108;2022-10-16T00:10:22;4.00;;;3.20;;
3085;SDS011;52812;48.960;9.108;2022-10-16T00:12:48;3.83;;;2.97;;
3085;SDS011;52812;48.960;9.108;2022-10-16T00:15:14;8.07;;;3.00;;
3085;SDS011;52812;48.960;9.108;2022-10-16T00:17:40;4.40;;;2.80;;
3085;SDS011;52812;48.960;9.108;2022-10-16T00:20:05;5.60;;;3.20;;
3085;SDS011;52812;48.960;9.108;2022-10-16T00:22:31;6.73;;;2.93;;
3085;SDS011;52812;48.960;9.108;2022-10-16T00:24:57;4.17;;;3.00;;
3085;SDS011;52812;48.960;9.108;2022-10-16T00:27:23;7.60;;;3.30;;
3085;SDS011;52812;48.960;9.108;2022-10-16T00:29:49;3.53;;;3.10;;
3085;SDS011;52812;48.960;9.108;2022-10-16T00:32:16;3.30;;;3.00;;
3085;SDS011;52812;48.960;9.108;2022-10-16T00:34:42;5.20;;;3.03;;
3085;SDS011;52812;48.960;9.108;2022-10-16T00:37:08;4.77;;;3.10;;
3085;SDS011;52812;48.960;9.108;2022-10-16T00:39:34;3.43;;;3.13;;
3085;SDS011;52812;48.960;9.108;2022-10-16T00:41:59;6.10;;;3.80;;
3085;SDS011;52812;48.960;9.108;2022-10-16T00:47:30;4.47;;;3.40;;
3085;SDS011;52812;48.960;9.108;2022-10-16T00:50:00;5.10;;;3.27;;
3085;SDS011;52812;48.960;9.108;2022-10-16T00:52:51;5.27;;;3.53;;
3085;SDS011;52812;48.960;9.108;2022-10-16T00:55:17;6.50;;;3.87;;
3085;SDS011;52812;48.960;9.108;2022-10-16T00:57:43;5.83;;;3.87;;
3085;SDS011;52812;48.960;9.108;2022-10-16T01:00:11;5.67;;;4.17;;
3085;SDS011;52812;48.960;9.108;2022-10-16T01:02:41;4.70;;;3.63;;
3085;SDS011;52812;48.960;9.108;2022-10-16T01:05:07;4.80;;;3.30;;
3085;SDS011;52812;48.960;9.108;2022-10-16T01:10:29;7.63;;;3.10;;
3085;SDS011;52812;48.960;9.108;2022-10-16T01:20:47;3.60;;;2.87;;
3085;SDS011;52812;48.960;9.108;2022-10-16T01:23:41;3.87;;;3.20;;
3085;SDS011;52812;48.960;9.108;2022-10-16T01:29:30;3.87;;;2.97;;
3085;SDS011;52812;48.960;9.108;2022-10-16T01:35:04;4.50;;;3.03;;
3085;SDS011;52812;48.960;9.108;2022-10-16T01:37:38;4.10;;;3.00;;
3085;SDS011;52812;48.960;9.108;2022-10-16T01:40:09;4.60;;;2.77;;
3085;SDS011;52812;48.960;9.108;2022-10-16T01:42:39;4.63;;;3.13;;
3085;SDS011;52812;48.960;9.108;2022-10-16T01:45:08;4.40;;;2.93;;
3085;SDS011;52812;48.960;9.108;2022-10-16T01:47:36;4.10;;;3.10;;
3085;SDS011;52812;48.960;9.108;2022-10-16T01:50:04;4.53;;;3.23;;
3085;SDS011;52812;48.960;9.108;2022-10-16T01:52:30;2.97;;;2.50;;
3085;SDS011;52812;48.960;9.108;2022-10-16T01:54:59;4.17;;;3.00;;
3085;SDS011;52812;48.960;9.108;2022-10-16T01:57:28;4.10;;;3.30;;
3085;SDS011;52812;48.960;9.108;2022-10-16T01:59:56;5.67;;;3.30;;
3085;SDS011;52812;48.960;9.108;2022-10-16T02:02:26;4.93;;;2.90;;
3085;SDS011;52812;48.960;9.108;2022-10-16T02:04:57;4.13;;;2.83;;
3085;SDS011;52812;48.960;9.108;2022-10-16T02:07:26;6.60;;;3.13;;
3085;SDS011;52812;48.960;9.108;2022-10-16T02:09:52;2.60;;;2.40;;
3085;SDS011;52812;48.960;9.108;2022-10-16T02:12:28;5.43;;;2.87;;
3085;SDS011;52812;48.960;9.108;2022-10-16T02:14:57;4.87;;;2.40;;
3085;SDS011;52812;48.960;9.108;2022-10-16T02:17:23;4.40;;;3.00;;
3085;SDS011;52812;48.960;9.108;2022-10-16T02:19:49;4.77;;;3.20;;
3085;SDS011;52812;48.960;9.108;2022-10-16T02:25:10;4.40;;;2.60;;
3085;SDS011;52812;48.960;9.108;2022-10-16T02:32:55;8.23;;;3.40;;
3085;SDS011;52812;48.960;9.108;2022-10-16T02:35:24;5.77;;;3.40;;
3085;SDS011;52812;48.960;9.108;2022-10-16T02:37:52;5.50;;;3.40;;
3085;SDS011;52812;48.960;9.108;2022-10-16T02:40:18;7.00;;;3.77;;
3085;SDS011;52812;48.960;9.108;2022-10-16T02:42:49;4.83;;;3.10;;
3085;SDS011;52812;48.960;9.108;2022-10-16T02:45:18;3.67;;;3.10;;
3085;SDS011;52812;48.960;9.108;2022-10-16T02:47:44;5.07;;;2.90;;
3085;SDS011;52812;48.960;9.108;2022-10-16T02:50:10;4.43;;;2.90;;
3085;SDS011;52812;48.960;9.108;2022-10-16T02:52:35;5.50;;;2.77;;
3085;SDS011;52812;48.960;9.108;2022-10-16T02:55:01;5.87;;;3.17;;
3085;SDS011;52812;48.960;9.108;2022-10-16T02:57:27;5.67;;;2.93;;
3085;SDS011;52812;48.960;9.108;2022-10-16T02:59:52;5.90;;;2.70;;
3085;SDS011;52812;48.960;9.108;2022-10-16T03:02:18;4.50;;;2.97;;
3085;SDS011;52812;48.960;9.108;2022-10-16T03:04:43;5.93;;;3.17;;
3085;SDS011;52812;48.960;9.108;2022-10-16T03:07:09;4.50;;;3.13;;
3085;SDS011;52812;48.960;9.108;2022-10-16T03:09:35;3.93;;;2.83;;
3085;SDS011;52812;48.960;9.108;2022-10-16T03:12:00;12.20;;;3.10;;
3085;SDS011;52812;48.960;9.108;2022-10-16T03:14:26;3.87;;;2.90;;
3085;SDS011;52812;48.960;9.108;2022-10-16T03:16:51;4.60;;;2.70;;
3085;SDS011;52812;48.960;9.108;2022-10-16T03:19:17;5.43;;;3.00;;
3085;SDS011;52812;48.960;9.108;2022-10-16T03:21:43;4.00;;;2.90;;
3085;SDS011;52812;48.960;9.108;2022-10-16T03:24:09;5.50;;;3.00;;
3085;SDS011;52812;48.960;9.108;2022-10-16T03:26:35;4.30;;;2.53;;
3085;SDS011;52812;48.960;9.108;2022-10-16T03:29:00;2.97;;;2.40;;
3085;SDS011;52812;48.960;9.108;2022-10-16T03:31:28;6.40;;;3.00;;
3085;SDS011;52812;48.960;9.108;2022-10-16T03:33:54;3.23;;;2.93;;
3085;SDS011;52812;48.960;9.108;2022-10-16T03:36:19;3.17;;;2.83;;
3085;SDS011;52812;48.960;9.108;2022-10-16T03:38:45;6.33;;;3.17;;
3085;SDS011;52812;48.960;9.108;2022-10-16T03:41:10;9.60;;;3.33;;
3085;SDS011;52812;48.960;9.108;2022-10-16T03:43:36;3.47;;;2.63;;
3085;SDS011;52812;48.960;9.108;2022-10-16T03:46:01;3.23;;;2.93;;
3085;SDS011;52812;48.960;9.108;2022-10-16T03:48:27;4.53;;;3.00;;
3085;SDS011;52812;48.960;9.108;2022-10-16T03:50:53;3.57;;;2.87;;
3085;SDS011;52812;48.960;9.108;2022-10-16T03:53:19;4.30;;;2.53;;
3085;SDS011;52812;48.960;9.108;2022-10-16T03:55:45;4.87;;;3.13;;
3085;SDS011;52812;48.960;9.108;2022-10-16T03:58:11;3.73;;;3.00;;
3085;SDS011;52812;48.960;9.108;2022-10-16T04:00:43;3.23;;;2.80;;
3085;SDS011;52812;48.960;9.108;2022-10-16T04:03:10;3.77;;;2.93;;
3085;SDS011;52812;48.960;9.108;2022-10-16T04:05:36;7.23;;;3.30;;
3085;SDS011;52812;48.960;9.108;2022-10-16T04:08:03;4.07;;;3.00;;
3085;SDS011;52812;48.960;9.108;2022-10-16T04:10:29;6.67;;;3.17;;
3085;SDS011;52812;48.960;9.108;2022-10-16T04:12:54;3.43;;;3.10;;
3085;SDS011;52812;48.960;9.108;2022-10-16T04:15:21;4.37;;;3.23;;
3085;SDS011;52812;48.960;9.108;2022-10-16T04:17:47;4.17;;;3.00;;
3085;SDS011;52812;48.960;9.108;2022-10-16T04:20:13;4.77;;;3.17;;
3085;SDS011;52812;48.960;9.108;2022-10-16T04:22:38;6.67;;;3.50;;
3085;SDS011;52812;48.960;9.108;2022-10-16T04:25:04;5.80;;;3.83;;
3085;SDS011;52812;48.960;9.108;2022-10-16T04:27:30;4.47;;;3.20;;
3085;SDS011;52812;48.960;9.108;2022-10-16T04:29:56;5.47;;;3.00;;
3085;SDS011;52812;48.960;9.108;2022-10-16T04:32:22;5.63;;;3.20;;
3085;SDS011;52812;48.960;9.108;2022-10-16T04:34:48;5.40;;;3.03;;
3085;SDS011;52812;48.960;9.108;2022-10-16T04:37:13;3.50;;;3.20;;
3085;SDS011;52812;48.960;9.108;2022-10-16T04:39:39;5.70;;;3.23;;
3085;SDS011;52812;48.960;9.108;2022-10-16T04:42:05;12.80;;;3.97;;
3085;SDS011;52812;48.960;9.108;2022-10-16T04:44:30;6.20;;;3.10;;
3085;SDS011;52812;48.960;9.108;2022-10-16T04:46:56;3.93;;;3.20;;
3085;SDS011;52812;48.960;9.108;2022-10-16T04:49:21;4.30;;;2.93;;
3085;SDS011;52812;48.960;9.108;2022-10-16T04:51:47;4.40;;;2.93;;
3085;SDS011;52812;48.960;9.108;2022-10-16T04:54:12;6.07;;;3.00;;
3085;SDS011;52812;48.960;9.108;2022-10-16T04:56:38;3.60;;;3.10;;
3085;SDS011;52812;48.960;9.108;2022-10-16T04:59:15;5.70;;;3.30;;
3085;SDS011;52812;48.960;9.108;2022-10-16T05:01:42;3.50;;;3.10;;
3085;SDS011;52812;48.960;9.108;2022-10-16T05:04:08;7.00;;;3.10;;
3085;SDS011;52812;48.960;9.108;2022-10-16T05:06:33;3.33;;;2.60;;
3085;SDS011;52812;48.960;9.108;2022-10-16T05:08:59;6.47;;;3.40;;
3085;SDS011;52812;48.960;9.108;2022-10-16T05:11:24;4.80;;;3.00;;
3085;SDS011;52812;48.960;9.108;2022-10-16T05:13:50;7.13;;;3.33;;
3085;SDS011;52812;48.960;9.108;2022-10-16T05:16:15;6.47;;;3.13;;
3085;SDS011;52812;48.960;9.108;2022-10-16T05:18:41;5.40;;;3.33;;
3085;SDS011;52812;48.960;9.108;2022-10-16T05:21:06;5.87;;;3.80;;
3085;SDS011;52812;48.960;9.108;2022-10-16T05:23:32;5.20;;;3.60;;
3085;SDS011;52812;48.960;9.108;2022-10-16T05:25:58;5.60;;;3.90;;
3085;SDS011;52812;48.960;9.108;2022-10-16T05:28:28;6.63;;;3.50;;
3085;SDS011;52812;48.960;9.108;2022-10-16T05:30:56;3.87;;;3.33;;
3085;SDS011;52812;48.960;9.108;2022-10-16T05:33:23;5.70;;;4.10;;
3085;SDS011;52812;48.960;9.108;2022-10-16T05:35:49;3.73;;;3.33;;
3085;SDS011;52812;48.960;9.108;2022-10-16T05:38:18;4.70;;;3.63;;
3085;SDS011;52812;48.960;9.108;2022-10-16T05:40:50;5.57;;;4.43;;
3085;SDS011;52812;48.960;9.108;2022-10-16T05:43:17;5.13;;;4.50;;
3085;SDS011;52812;48.960;9.108;2022-10-16T05:45:42;5.90;;;4.50;;
3085;SDS011;52812;48.960;9.108;2022-10-16T05:48:08;4.97;;;4.23;;
3085;SDS011;52812;48.960;9.108;2022-10-16T05:50:33;4.87;;;3.70;;
3085;SDS011;52812;48.960;9.108;2022-10-16T05:52:59;6.10;;;4.17;;
3085;SDS011;52812;48.960;9.108;2022-10-16T05:55:24;10.53;;;4.40;;
3085;SDS011;52812;48.960;9.108;2022-10-16T05:57:50;8.93;;;3.80;;
3085;SDS011;52812;48.960;9.108;2022-10-16T06:00:18;7.13;;;3.60;;
3085;SDS011;52812;48.960;9.108;2022-10-16T06:02:44;4.63;;;3.80;;
3085;SDS011;52812;48.960;9.108;2022-10-16T06:05:09;6.23;;;4.13;;
3085;SDS011;52812;48.960;9.108;2022-10-16T06:07:35;6.70;;;3.80;;
3085;SDS011;52812;48.960;9.108;2022-10-16T06:10:01;6.20;;;3.97;;
3085;SDS011;52812;48.960;9.108;2022-10-16T06:12:27;7.90;;;4.30;;
3085;SDS011;52812;48.960;9.108;2022-10-16T06:14:53;6.67;;;4.07;;
3085;SDS011;52812;48.960;9.108;2022-10-16T06:17:18;10.30;;;4.00;;
3085;SDS011;52812;48.960;9.108;2022-10-16T06:19:44;5.03;;;3.60;;
3085;SDS011;52812;48.960;9.108;2022-10-16T06:22:09;6.17;;;3.60;;
3085;SDS011;52812;48.960;9.108;2022-10-16T06:24:35;7.30;;;4.20;;
3085;SDS011;52812;48.960;9.108;2022-10-16T06:27:02;5.50;;;3.43;;
3085;SDS011;52812;48.960;9.108;2022-10-16T06:29:29;5.20;;;4.03;;
3085;SDS011;52812;48.960;9.108;2022-10-16T06:31:54;5.90;;;4.30;;
3085;SDS011;52812;48.960;9.108;2022-10-16T06:34:20;5.57;;;4.03;;
3085;SDS011;52812;48.960;9.108;2022-10-16T06:36:45;4.83;;;4.33;;
3085;SDS011;52812;48.960;9.108;2022-10-16T06:39:11;7.10;;;4.40;;
3085;SDS011;52812;48.960;9.108;2022-10-16T06:41:36;7.37;;;4.03;;
3085;SDS011;52812;48.960;9.108;2022-10-16T06:44:05;8.43;;;4.20;;
3085;SDS011;52812;48.960;9.108;2022-10-16T06:46:31;7.30;;;3.67;;
3085;SDS011;52812;48.960;9.108;2022-10-16T06:48:57;6.27;;;3.30;;
3085;SDS011;52812;48.960;9.108;2022-10-16T06:51:23;6.47;;;3.27;;
3085;SDS011;52812;48.960;9.108;2022-10-16T06:53:51;6.37;;;3.03;;
3085;SDS011;52812;48.960;9.108;2022-10-16T06:56:22;4.70;;;3.70;;
3085;SDS011;52812;48.960;9.108;2022-10-16T06:58:49;5.87;;;3.30;;
3085;SDS011;52812;48.960;9.108;2022-10-16T07:01:16;5.17;;;3.30;;
3085;SDS011;52812;48.960;9.108;2022-10-16T07:03:43;5.57;;;3.60;;
3085;SDS011;52812;48.960;9.108;2022-10-16T07:06:11;4.20;;;3.10;;
3085;SDS011;52812;48.960;9.108;2022-10-16T07:08:40;5.50;;;3.30;;
3085;SDS011;52812;48.960;9.108;2022-10-16T07:11:08;7.63;;;3.40;;
3085;SDS011;52812;48.960;9.108;2022-10-16T07:13:36;4.80;;;3.40;;
3085;SDS011;52812;48.960;9.108;2022-10-16T07:16:04;4.30;;;2.73;;
3085;SDS011;52812;48.960;9.108;2022-10-16T07:18:34;4.20;;;3.17;;
3085;SDS011;52812;48.960;9.108;2022-10-16T07:23:40;3.80;;;2.87;;
3085;SDS011;52812;48.960;9.108;2022-10-16T07:26:06;8.70;;;3.20;;
3085;SDS011;52812;48.960;9.108;2022-10-16T07:28:33;4.43;;;3.03;;
3085;SDS011;52812;48.960;9.108;2022-10-16T07:31:06;5.90;;;3.20;;
3085;SDS011;52812;48.960;9.108;2022-10-16T07:33:33;3.80;;;3.13;;
3085;SDS011;52812;48.960;9.108;2022-10-16T07:35:59;4.97;;;3.30;;
3085;SDS011;52812;48.960;9.108;2022-10-16T07:38:25;4.17;;;3.10;;
3085;SDS011;52812;48.960;9.108;2022-10-16T07:40:57;5.43;;;3.10;;
3085;SDS011;52812;48.960;9.108;2022-10-16T07:43:24;8.40;;;3.67;;
3085;SDS011;52812;48.960;9.108;2022-10-16T07:45:51;4.67;;;3.80;;
3085;SDS011;52812;48.960;9.108;2022-10-16T07:48:17;5.57;;;4.13;;
3085;SDS011;52812;48.960;9.108;2022-10-16T07:50:43;6.13;;;3.67;;
3085;SDS011;52812;48.960;9.108;2022-10-16T07:53:10;8.60;;;3.40;;
3085;SDS011;52812;48.960;9.108;2022-10-16T07:55:36;3.40;;;3.00;;
3085;SDS011;52812;48.960;9.108;2022-10-16T07:58:03;9.30;;;3.60;;
3085;SDS011;52812;48.960;9.108;2022-10-16T08:00:30;3.90;;;3.10;;
3085;SDS011;52812;48.960;9.108;2022-10-16T08:02:57;3.40;;;2.90;;
3085;SDS011;52812;48.960;9.108;2022-10-16T08:05:32;4.07;;;3.00;;
3085;SDS011;52812;48.960;9.108;2022-10-16T08:08:05;3.70;;;3.40;;
3085;SDS011;52812;48.960;9.108;2022-10-16T08:10:31;7.40;;;3.40;;
3085;SDS011;52812;48.960;9.108;2022-10-16T08:13:00;6.80;;;3.30;;
3085;SDS011;52812;48.960;9.108;2022-10-16T08:15:28;4.17;;;2.80;;
3085;SDS011;52812;48.960;9.108;2022-10-16T08:17:55;4.27;;;2.90;;
3085;SDS011;52812;48.960;9.108;2022-10-16T08:20:27;4.30;;;3.20;;
3085;SDS011;52812;48.960;9.108;2022-10-16T08:23:03;3.30;;;2.67;;
3085;SDS011;52812;48.960;9.108;2022-10-16T08:25:31;3.30;;;2.80;;
3085;SDS011;52812;48.960;9.108;2022-10-16T08:27:59;4.17;;;3.30;;
3085;SDS011;52812;48.960;9.108;2022-10-16T08:30:24;3.40;;;2.80;;
3085;SDS011;52812;48.960;9.108;2022-10-16T08:33:03;3.73;;;2.90;;
3085;SDS011;52812;48.960;9.108;2022-10-16T08:39:01;4.33;;;2.63;;
3085;SDS011;52812;48.960;9.108;2022-10-16T08:44:40;6.70;;;2.90;;
3085;SDS011;52812;48.960;9.108;2022-10-16T08:49:30;7.27;;;3.00;;
3085;SDS011;52812;48.960;9.108;2022-10-16T08:51:56;4.27;;;2.80;;
3085;SDS011;52812;48.960;9.108;2022-10-16T08:56:56;4.47;;;3.10;;
3085;SDS011;52812;48.960;9.108;2022-10-16T08:59:26;3.47;;;2.90;;
3085;SDS011;52812;48.960;9.108;2022-10-16T09:01:51;3.80;;;2.80;;
3085;SDS011;52812;48.960;9.108;2022-10-16T09:07:13;4.37;;;2.77;;
3085;SDS011;52812;48.960;9.108;2022-10-16T09:10:01;5.80;;;2.80;;
3085;SDS011;52812;48.960;9.108;2022-10-16T09:17:48;3.90;;;2.90;;
3085;SDS011;52812;48.960;9.108;2022-10-16T09:23:12;6.30;;;2.63;;
3085;SDS011;52812;48.960;9.108;2022-10-16T09:25:42;7.40;;;2.90;;
3085;SDS011;52812;48.960;9.108;2022-10-16T09:28:10;2.80;;;2.60;;
3085;SDS011;52812;48.960;9.108;2022-10-16T09:30:36;3.33;;;2.67;;
3085;SDS011;52812;48.960;9.108;2022-10-16T09:33:03;4.90;;;2.90;;
3085;SDS011;52812;48.960;9.108;2022-10-16T09:35:36;5.70;;;2.80;;
3085;SDS011;52812;48.960;9.108;2022-10-16T09:38:20;5.77;;;2.73;;
3085;SDS011;52812;48.960;9.108;2022-10-16T09:40:51;3.43;;;2.40;;
3085;SDS011;52812;48.960;9.108;2022-10-16T09:43:22;5.83;;;2.80;;
3085;SDS011;52812;48.960;9.108;2022-10-16T09:46:07;3.70;;;2.70;;
3085;SDS011;52812;48.960;9.108;2022-10-16T09:48:54;4.50;;;2.37;;
3085;SDS011;52812;48.960;9.108;2022-10-16T09:51:32;5.00;;;2.43;;
3085;SDS011;52812;48.960;9.108;2022-10-16T09:56:35;3.50;;;2.60;;
3085;SDS011;52812;48.960;9.108;2022-10-16T09:59:16;4.37;;;2.50;;
3085;SDS011;52812;48.960;9.108;2022-10-16T10:01:50;4.47;;;2.90;;
3085;SDS011;52812;48.960;9.108;2022-10-16T10:04:21;5.13;;;2.50;;
3085;SDS011;52812;48.960;9.108;2022-10-16T10:06:49;11.50;;;2.40;;
3085;SDS011;52812;48.960;9.108;2022-10-16T10:11:49;2.30;;;2.10;;
3085;SDS011;52812;48.960;9.108;2022-10-16T10:14:35;4.53;;;2.47;;
3085;SDS011;52812;48.960;9.108;2022-10-16T10:19:30;2.50;;;2.17;;
3085;SDS011;52812;48.960;9.108;2022-10-16T10:22:24;4.07;;;2.20;;
3085;SDS011;52812;48.960;9.108;2022-10-16T10:38:30;3.70;;;2.53;;
3085;SDS011;52812;48.960;9.108;2022-10-16T10:44:20;6.63;;;2.10;;
3085;SDS011;52812;48.960;9.108;2022-10-16T10:53:06;2.83;;;2.20;;
3085;SDS011;52812;48.960;9.108;2022-10-16T10:55:47;6.37;;;2.20;;
3085;SDS011;52812;48.960;9.108;2022-10-16T11:06:48;5.60;;;2.37;;
3085;SDS011;52812;48.960;9.108;2022-10-16T11:17:42;3.93;;;2.60;;
3085;SDS011;52812;48.960;9.108;2022-10-16T11:20:19;3.07;;;2.17;;
3085;SDS011;52812;48.960;9.108;2022-10-16T11:25:43;3.23;;;2.47;;
3085;SDS011;52812;48.960;9.108;2022-10-16T11:38:43;5.77;;;2.43;;
3085;SDS011;52812;48.960;9.108;2022-10-16T11:41:24;2.53;;;2.00;;
3085;SDS011;52812;48.960;9.108;2022-10-16T11:46:53;5.13;;;2.40;;
3085;SDS011;52812;48.960;9.108;2022-10-16T11:49:24;3.10;;;2.10;;
3085;SDS011;52812;48.960;9.108;2022-10-16T11:51:57;1.93;;;1.80;;
3085;SDS011;52812;48.960;9.108;2022-10-16T11:54:39;11.37;;;2.77;;
3085;SDS011;52812;48.960;9.108;2022-10-16T11:57:14;6.13;;;2.37;;
3085;SDS011;52812;48.960;9.108;2022-10-16T11:59:55;5.67;;;2.53;;
3085;SDS011;52812;48.960;9.108;2022-10-16T12:08:08;3.07;;;1.80;;
3085;SDS011;52812;48.960;9.108;2022-10-16T12:10:37;3.10;;;2.10;;
3085;SDS011;52812;48.960;9.108;2022-10-16T12:13:04;4.23;;;2.00;;
3085;SDS011;52812;48.960;9.108;2022-10-16T12:15:50;2.20;;;2.00;;
3085;SDS011;52812;48.960;9.108;2022-10-16T12:18:23;2.70;;;2.10;;
3085;SDS011;52812;48.960;9.108;2022-10-16T12:20:56;2.53;;;2.00;;
3085;SDS011;52812;48.960;9.108;2022-10-16T12:23:25;6.80;;;2.10;;
3085;SDS011;52812;48.960;9.108;2022-10-16T12:25:55;3.73;;;2.00;;
3085;SDS011;52812;48.960;9.108;2022-10-16T12:28:25;3.20;;;1.90;;
3085;SDS011;52812;48.960;9.108;2022-10-16T12:30:59;2.30;;;2.10;;
3085;SDS011;52812;48.960;9.108;2022-10-16T12:33:28;2.20;;;2.00;;
3085;SDS011;52812;48.960;9.108;2022-10-16T12:35:55;4.17;;;1.90;;
3085;SDS011;52812;48.960;9.108;2022-10-16T12:38:25;4.83;;;2.30;;
3085;SDS011;52812;48.960;9.108;2022-10-16T12:40:56;2.47;;;2.10;;
3085;SDS011;52812;48.960;9.108;2022-10-16T12:43:25;3.70;;;2.37;;
3085;SDS011;52812;48.960;9.108;2022-10-16T12:48:47;2.07;;;1.93;;
3085;SDS011;52812;48.960;9.108;2022-10-16T12:53:59;4.13;;;1.93;;
3085;SDS011;52812;48.960;9.108;2022-10-16T13:02:33;4.50;;;2.03;;
3085;SDS011;52812;48.960;9.108;2022-10-16T13:11:05;5.57;;;1.90;;
3085;SDS011;52812;48.960;9.108;2022-10-16T13:21:48;9.57;;;3.70;;
3085;SDS011;52812;48.960;9.108;2022-10-16T13:27:23;2.33;;;1.80;;
3085;SDS011;52812;48.960;9.108;2022-10-16T13:30:01;2.20;;;2.00;;
3085;SDS011;52812;48.960;9.108;2022-10-16T13:32:45;4.03;;;2.50;;
3085;SDS011;52812;48.960;9.108;2022-10-16T13:35:19;3.30;;;2.13;;
3085;SDS011;52812;48.960;9.108;2022-10-16T13:37:48;2.50;;;1.93;;
3085;SDS011;52812;48.960;9.108;2022-10-16T13:40:20;2.50;;;2.30;;
3085;SDS011;52812;48.960;9.108;2022-10-16T13:42:47;3.20;;;1.93;;
3085;SDS011;52812;48.960;9.108;2022-10-16T13:45:18;4.40;;;1.77;;
3085;SDS011;52812;48.960;9.108;2022-10-16T13:47:48;3.13;;;2.00;;
3085;SDS011;52812;48.960;9.108;2022-10-16T13:50:15;2.53;;;2.27;;
3085;SDS011;52812;48.960;9.108;2022-10-16T13:52:42;3.00;;;2.00;;
3085;SDS011;52812;48.960;9.108;2022-10-16T13:55:12;2.53;;;1.70;;
3085;SDS011;52812;48.960;9.108;2022-10-16T13:57:39;5.00;;;2.07;;
3085;SDS011;52812;48.960;9.108;2022-10-16T14:00:25;2.20;;;2.00;;
3085;SDS011;52812;48.960;9.108;2022-10-16T14:03:11;4.73;;;2.30;;
3085;SDS011;52812;48.960;9.108;2022-10-16T14:05:50;2.37;;;2.00;;
3085;SDS011;52812;48.960;9.108;2022-10-16T14:08:18;2.60;;;2.20;;
3085;SDS011;52812;48.960;9.108;2022-10-16T14:10:47;4.13;;;1.87;;
3085;SDS011;52812;48.960;9.108;2022-10-16T14:13:16;3.07;;;2.00;;
3085;SDS011;52812;48.960;9.108;2022-10-16T14:15:49;2.90;;;2.20;;
3085;SDS011;52812;48.960;9.108;2022-10-16T14:18:20;2.10;;;2.00;;
3085;SDS011;52812;48.960;9.108;2022-10-16T14:20:50;3.43;;;1.93;;
3085;SDS011;52812;48.960;9.108;2022-10-16T14:23:29;3.20;;;2.30;;
3085;SDS011;52812;48.960;9.108;2022-10-16T14:29:12;3.50;;;2.23;;
3085;SDS011;52812;48.960;9.108;2022-10-16T14:31:39;4.03;;;1.90;;
3085;SDS011;52812;48.960;9.108;2022-10-16T14:34:22;5.10;;;2.57;;
3085;SDS011;52812;48.960;9.108;2022-10-16T14:36:52;3.60;;;1.90;;
3085;SDS011;52812;48.960;9.108;2022-10-16T14:39:20;10.20;;;2.40;;
3085;SDS011;52812;48.960;9.108;2022-10-16T14:41:48;3.73;;;2.13;;
3085;SDS011;52812;48.960;9.108;2022-10-16T14:44:14;3.23;;;2.20;;
3085;SDS011;52812;48.960;9.108;2022-10-16T14:46:43;7.17;;;2.40;;
3085;SDS011;52812;48.960;9.108;2022-10-16T14:51:35;4.07;;;2.10;;
3085;SDS011;52812;48.960;9.108;2022-10-16T14:54:01;4.13;;;2.30;;
3085;SDS011;52812;48.960;9.108;2022-10-16T14:56:34;3.23;;;2.07;;
3085;SDS011;52812;48.960;9.108;2022-10-16T14:59:14;4.40;;;2.33;;
3085;SDS011;52812;48.960;9.108;2022-10-16T15:01:50;3.23;;;2.03;;
3085;SDS011;52812;48.960;9.108;2022-10-16T15:04:16;2.47;;;2.27;;
3085;SDS011;52812;48.960;9.108;2022-10-16T15:06:42;3.77;;;2.10;;
3085;SDS011;52812;48.960;9.108;2022-10-16T15:09:08;2.50;;;2.00;;
3085;SDS011;52812;48.960;9.108;2022-10-16T15:11:33;3.70;;;2.07;;
3085;SDS011;52812;48.960;9.108;2022-10-16T15:13:59;3.80;;;2.13;;
3085;SDS011;52812;48.960;9.108;2022-10-16T15:16:25;3.87;;;2.17;;
3085;SDS011;52812;48.960;9.108;2022-10-16T15:18:50;2.30;;;2.10;;
3085;SDS011;52812;48.960;9.108;2022-10-16T15:21:21;5.23;;;2.10;;
3085;SDS011;52812;48.960;9.108;2022-10-16T15:23:51;5.00;;;2.03;;
3085;SDS011;52812;48.960;9.108;2022-10-16T15:26:16;5.60;;;2.00;;
3085;SDS011;52812;48.960;9.108;2022-10-16T15:28:42;2.53;;;2.10;;
3085;SDS011;52812;48.960;9.108;2022-10-16T15:31:07;4.57;;;2.10;;
3085;SDS011;52812;48.960;9.108;2022-10-16T15:33:33;3.70;;;1.97;;
3085;SDS011;52812;48.960;9.108;2022-10-16T15:36:00;3.20;;;2.33;;
3085;SDS011;52812;48.960;9.108;2022-10-16T15:38:26;2.83;;;2.20;;
3085;SDS011;52812;48.960;9.108;2022-10-16T15:40:53;9.63;;;2.40;;
3085;SDS011;52812;48.960;9.108;2022-10-16T15:43:19;2.90;;;2.10;;
3085;SDS011;52812;48.960;9.108;2022-10-16T15:45:47;3.47;;;2.40;;
3085;SDS011;52812;48.960;9.108;2022-10-16T15:48:25;2.63;;;2.20;;
3085;SDS011;52812;48.960;9.108;2022-10-16T15:50:51;2.90;;;2.00;;
3085;SDS011;52812;48.960;9.108;2022-10-16T15:53:16;3.13;;;2.27;;
3085;SDS011;52812;48.960;9.108;2022-10-16T15:55:42;3.87;;;2.23;;
3085;SDS011;52812;48.960;9.108;2022-10-16T15:58:07;4.40;;;2.80;;
3085;SDS011;52812;48.960;9.108;2022-10-16T16:00:33;2.90;;;2.40;;
3085;SDS011;52812;48.960;9.108;2022-10-16T16:02:58;2.30;;;2.10;;
3085;SDS011;52812;48.960;9.108;2022-10-16T16:05:24;2.57;;;2.00;;
3085;SDS011;52812;48.960;9.108;2022-10-16T16:07:50;2.30;;;2.10;;
3085;SDS011;52812;48.960;9.108;2022-10-16T16:10:16;2.70;;;2.23;;
3085;SDS011;52812;48.960;9.108;2022-10-16T16:12:42;2.60;;;2.40;;
3085;SDS011;52812;48.960;9.108;2022-10-16T16:15:08;3.10;;;2.30;;
3085;SDS011;52812;48.960;9.108;2022-10-16T16:17:34;5.77;;;3.07;;
3085;SDS011;52812;48.960;9.108;2022-10-16T16:20:01;4.87;;;2.33;;
3085;SDS011;52812;48.960;9.108;2022-10-16T16:22:27;3.97;;;2.10;;
3085;SDS011;52812;48.960;9.108;2022-10-16T16:24:53;9.03;;;2.90;;
3085;SDS011;52812;48.960;9.108;2022-10-16T16:27:18;4.00;;;2.40;;
3085;SDS011;52812;48.960;9.108;2022-10-16T16:29:44;4.70;;;2.40;;
3085;SDS011;52812;48.960;9.108;2022-10-16T16:32:11;3.40;;;2.30;;
3085;SDS011;52812;48.960;9.108;2022-10-16T16:34:36;5.53;;;2.60;;
3085;SDS011;52812;48.960;9.108;2022-10-16T16:37:02;3.37;;;2.73;;
3085;SDS011;52812;48.960;9.108;2022-10-16T16:39:27;4.33;;;2.80;;
3085;SDS011;52812;48.960;9.108;2022-10-16T16:41:54;5.57;;;2.80;;
3085;SDS011;52812;48.960;9.108;2022-10-16T16:44:21;7.27;;;3.10;;
3085;SDS011;52812;48.960;9.108;2022-10-16T16:46:46;3.07;;;2.83;;
3085;SDS011;52812;48.960;9.108;2022-10-16T16:49:12;3.33;;;2.90;;
3085;SDS011;52812;48.960;9.108;2022-10-16T16:51:39;14.50;;;3.43;;
3085;SDS011;52812;48.960;9.108;2022-10-16T16:54:04;4.30;;;2.70;;
3085;SDS011;52812;48.960;9.108;2022-10-16T16:56:31;3.40;;;2.90;;
3085;SDS011;52812;48.960;9.108;2022-10-16T16:58:57;6.40;;;2.60;;
3085;SDS011;52812;48.960;9.108;2022-10-16T17:01:23;3.17;;;2.87;;
3085;SDS011;52812;48.960;9.108;2022-10-16T17:03:51;4.93;;;2.80;;
3085;SDS011;52812;48.960;9.108;2022-10-16T17:06:18;8.60;;;4.23;;
3085;SDS011;52812;48.960;9.108;2022-10-16T17:08:45;8.93;;;6.43;;
3085;SDS011;52812;48.960;9.108;2022-10-16T17:11:12;9.47;;;5.47;;
3085;SDS011;52812;48.960;9.108;2022-10-16T17:13:40;14.07;;;6.33;;
3085;SDS011;52812;48.960;9.108;2022-10-16T17:16:05;11.17;;;5.57;;
3085;SDS011;52812;48.960;9.108;2022-10-16T17:18:31;6.40;;;4.57;;
3085;SDS011;52812;48.960;9.108;2022-10-16T17:20:58;10.90;;;4.77;;
3085;SDS011;52812;48.960;9.108;2022-10-16T17:23:25;5.10;;;3.77;;
3085;SDS011;52812;48.960;9.108;2022-10-16T17:25:51;9.77;;;5.17;;
3085;SDS011;52812;48.960;9.108;2022-10-16T17:28:16;7.50;;;4.40;;
3085;SDS011;52812;48.960;9.108;2022-10-16T17:30:43;8.47;;;4.70;;
3085;SDS011;52812;48.960;9.108;2022-10-16T17:33:09;7.53;;;4.43;;
3085;SDS011;52812;48.960;9.108;2022-10-16T17:35:40;6.10;;;4.40;;
3085;SDS011;52812;48.960;9.108;2022-10-16T17:38:07;6.20;;;3.90;;
3085;SDS011;52812;48.960;9.108;2022-10-16T17:40:33;8.13;;;4.60;;
3085;SDS011;52812;48.960;9.108;2022-10-16T17:42:59;6.60;;;4.33;;
3085;SDS011;52812;48.960;9.108;2022-10-16T17:45:25;5.60;;;4.20;;